N83 weather

Public forecast

Using degrees Fahrenheit for public forecast. Weather courtesy of forecast.io.

Closest aviation weather report (METAR) to Ds Butler Farm and Airfield

Closest report is Piedmont Triad International Airport, 6.7 nm (12.4 km) SSE. Retrieved 2020/08/14 12:54 UTC (25 minutes ago):

KGSO 141254Z 03004KT 10SM OVC006 23/22 A3001 RMK AO2 SLP153 T02280222

Closest aviation forecast (TAF) to Ds Butler Farm and Airfield

Closest forecast is Piedmont Triad International Airport, 6.7 nm (12.4 km) SSE. Retrieved 2020/08/14 12:22 UTC (57 minutes ago):

TAF KGSO 141120Z 1412/1512 02003KT 6SM BR BKN005 TEMPO 1412/1413 4SM BR OVC003 FM141400 05005KT P6SM VCSH BKN008 FM141500 04004KT P6SM VCSH SCT008 BKN015 FM141700 06004KT P6SM VCSH SCT025 BKN040 BKN250 TEMPO 1418/1422 VRB15G25KT 2SM -TSRA BKN030 BKN045CB OVC100 FM150900 08003KT 5SM -SHRA BKN008 OVC015